createdAt,value
2022-09-28T00:03:32.073Z,10.23
2022-09-28T00:08:35.992Z,8.45
2022-09-28T00:13:38.866Z,8.43
2022-09-28T00:18:43.602Z,8.52
2022-09-28T00:24:09.659Z,9.32
2022-09-28T00:29:21.118Z,8.75
2022-09-28T00:34:25.363Z,8.57
2022-09-28T00:39:28.436Z,8.98
2022-09-28T00:44:43.871Z,8.82
2022-09-28T00:49:52.045Z,8.68
2022-09-28T00:54:57.149Z,9.77
2022-09-28T01:00:01.590Z,7.95
2022-09-28T01:05:08.277Z,9.57
2022-09-28T01:10:11.563Z,8.77
2022-09-28T01:15:15.591Z,10.57
2022-09-28T01:20:37.484Z,9.05
2022-09-28T01:25:46.781Z,8.38
2022-09-28T01:31:03.287Z,11.00
2022-09-28T01:36:10.870Z,8.82
2022-09-28T01:46:25.580Z,9.77
2022-09-28T01:51:33.425Z,10.75
2022-09-28T01:56:41.302Z,9.38
2022-09-28T02:01:52.880Z,12.98
2022-09-28T02:07:01.175Z,10.10
2022-09-28T02:12:11.912Z,10.07
2022-09-28T02:17:17.179Z,11.85
2022-09-28T02:27:42.548Z,13.95
2022-09-28T02:32:51.060Z,12.90
2022-09-28T02:37:55.994Z,14.73
2022-09-28T02:43:07.740Z,14.55
2022-09-28T02:48:41.308Z,12.38
2022-09-28T02:54:01.820Z,12.73
2022-09-28T02:59:14.588Z,13.18
2022-09-28T03:04:27.734Z,13.05
2022-09-28T03:09:35.911Z,12.10
2022-09-28T03:14:39.057Z,15.27
2022-09-28T03:19:44.148Z,17.67
2022-09-28T03:24:46.949Z,14.60
2022-09-28T03:29:49.966Z,15.20
2022-09-28T03:34:54.526Z,13.20
2022-09-28T03:39:57.320Z,18.67
2022-09-28T03:45:00.132Z,15.20
2022-09-28T03:50:04.590Z,17.52
2022-09-28T03:55:07.975Z,15.70
2022-09-28T04:00:11.916Z,17.17
2022-09-28T04:05:18.991Z,16.60
2022-09-28T04:10:22.067Z,19.58
2022-09-28T04:15:25.415Z,18.98
2022-09-28T04:20:29.956Z,20.45
2022-09-28T04:25:39.627Z,16.58
2022-09-28T04:30:42.799Z,17.15
2022-09-28T04:35:47.095Z,19.10
2022-09-28T04:40:50.512Z,21.38
2022-09-28T04:45:53.413Z,22.10
2022-09-28T04:51:01.677Z,23.00
2022-09-28T04:56:07.011Z,28.23
2022-09-28T05:01:13.581Z,32.70
2022-09-28T05:06:32.989Z,30.40
2022-09-28T05:11:40.650Z,32.38
2022-09-28T05:16:48.614Z,33.30
2022-09-28T05:22:06.113Z,26.40
2022-09-28T05:27:15.830Z,33.67
2022-09-28T05:32:21.885Z,33.70
2022-09-28T05:37:49.387Z,33.47
2022-09-28T05:42:52.530Z,31.63
2022-09-28T05:47:55.400Z,37.35
2022-09-28T05:53:01.681Z,36.97
2022-09-28T05:58:19.346Z,40.50
2022-09-28T06:03:22.540Z,35.78
2022-09-28T06:08:26.839Z,29.85
2022-09-28T06:13:38.614Z,31.75
2022-09-28T06:18:42.347Z,34.63
2022-09-28T06:23:49.651Z,31.85
2022-09-28T06:28:54.215Z,31.90
2022-09-28T06:33:57.334Z,36.13
2022-09-28T06:39:01.570Z,31.45
2022-09-28T06:44:05.004Z,32.45
2022-09-28T06:49:30.293Z,36.05
2022-09-28T06:54:53.120Z,39.92
2022-09-28T07:00:06.085Z,37.22
2022-09-28T07:05:13.527Z,37.97
2022-09-28T07:10:36.027Z,34.75
2022-09-28T07:15:57.370Z,31.27
2022-09-28T07:21:02.805Z,36.55
2022-09-28T07:26:09.381Z,39.40
2022-09-28T07:36:39.101Z,34.33
2022-09-28T07:41:44.256Z,38.35
2022-09-28T07:46:47.372Z,36.22
2022-09-28T07:51:57.553Z,29.73
2022-09-28T07:57:15.239Z,36.05
2022-09-28T08:02:44.694Z,35.70
2022-09-28T08:07:53.041Z,38.15
2022-09-28T08:13:02.032Z,31.33
2022-09-28T08:18:26.280Z,35.10
2022-09-28T08:23:29.153Z,34.85
2022-09-28T08:28:34.288Z,39.47
2022-09-28T08:33:43.120Z,35.95
2022-09-28T08:39:09.345Z,36.53
2022-09-28T08:50:11.107Z,35.67
2022-09-28T08:55:37.841Z,36.53
2022-09-28T09:06:04.442Z,34.90
2022-09-28T09:11:43.803Z,34.67
2022-09-28T09:17:00.381Z,35.83
2022-09-28T09:22:40.672Z,31.52
2022-09-28T09:27:59.715Z,39.67
2022-09-28T09:33:35.794Z,31.25
2022-09-28T09:39:08.105Z,32.97
2022-09-28T09:44:48.802Z,32.70
2022-09-28T09:50:25.253Z,33.63
2022-09-28T09:55:35.215Z,30.75
2022-09-28T10:01:06.830Z,27.58
2022-09-28T10:06:40.212Z,30.77
2022-09-28T10:11:47.710Z,33.45
2022-09-28T10:16:53.418Z,27.97
2022-09-28T10:22:24.212Z,21.75
2022-09-28T10:27:32.681Z,15.93
2022-09-28T10:32:41.323Z,13.05
2022-09-28T10:37:52.253Z,11.65
2022-09-28T10:43:22.876Z,10.35
2022-09-28T10:48:29.463Z,10.27
2022-09-28T10:53:36.963Z,10.07
2022-09-28T10:58:42.116Z,10.05
2022-09-28T11:03:53.304Z,10.60
2022-09-28T11:08:59.564Z,8.13
2022-09-28T11:14:04.686Z,10.15
2022-09-28T11:19:29.432Z,9.57
2022-09-28T11:24:33.996Z,9.23
2022-09-28T11:29:42.745Z,8.30
2022-09-28T11:35:17.461Z,14.55
2022-09-28T11:40:31.480Z,16.42
2022-09-28T11:45:47.694Z,8.05
2022-09-28T11:50:53.297Z,7.72
2022-09-28T11:56:08.665Z,16.75
2022-09-28T12:01:23.115Z,9.27
2022-09-28T12:06:53.329Z,8.98
2022-09-28T12:12:05.198Z,12.95
2022-09-28T12:17:26.577Z,6.72
2022-09-28T12:22:36.375Z,6.78
2022-09-28T12:27:47.256Z,8.27
2022-09-28T12:32:56.351Z,10.05
2022-09-28T12:38:18.222Z,14.90
2022-09-28T12:43:57.593Z,7.10
2022-09-28T12:54:51.664Z,24.15
2022-09-28T13:00:03.717Z,12.85
2022-09-28T13:05:25.273Z,7.78
2022-09-28T13:10:34.712Z,43.70
2022-09-28T13:15:44.980Z,10.40
2022-09-28T13:21:04.836Z,6.40
2022-09-28T13:26:17.847Z,17.08
2022-09-28T13:31:29.151Z,6.03
2022-09-28T13:36:39.293Z,81.18
2022-09-28T13:41:50.574Z,3.93
2022-09-28T13:47:20.525Z,4.70
2022-09-28T13:52:35.677Z,5.20
2022-09-28T13:57:46.316Z,5.72
2022-09-28T14:02:58.778Z,6.22
2022-09-28T14:08:30.997Z,5.38
2022-09-28T14:14:01.339Z,5.53
2022-09-28T14:19:09.148Z,5.70
2022-09-28T14:24:30.254Z,6.18
2022-09-28T14:29:36.486Z,5.28
2022-09-28T14:34:44.031Z,6.03
2022-09-28T14:40:05.776Z,4.47
2022-09-28T14:45:35.820Z,8.93
2022-09-28T14:50:40.391Z,5.63
2022-09-28T14:55:51.138Z,2.72
2022-09-28T15:01:01.597Z,5.10
2022-09-28T15:06:06.016Z,5.53
2022-09-28T15:11:16.683Z,7.28
2022-09-28T15:16:24.809Z,5.05
2022-09-28T15:21:36.354Z,5.63
2022-09-28T15:26:39.066Z,6.32
2022-09-28T15:31:41.927Z,7.97
2022-09-28T15:36:47.109Z,6.53
2022-09-28T15:41:51.637Z,8.57
2022-09-28T15:47:09.451Z,9.80
2022-09-28T15:52:36.430Z,9.53
2022-09-28T15:57:41.089Z,11.80
2022-09-28T16:03:00.291Z,10.45
2022-09-28T16:08:06.010Z,7.75
2022-09-28T16:13:21.080Z,9.75
2022-09-28T16:18:25.474Z,11.02
2022-09-28T16:23:33.244Z,9.90
2022-09-28T16:28:55.879Z,11.95
2022-09-28T16:34:02.242Z,12.15
2022-09-28T16:39:06.341Z,21.60
2022-09-28T16:44:17.150Z,13.30
2022-09-28T16:49:20.035Z,15.65
2022-09-28T16:54:43.115Z,16.65
2022-09-28T16:59:45.875Z,17.50
2022-09-28T17:04:48.664Z,20.25
2022-09-28T17:09:52.818Z,23.50
2022-09-28T17:14:56.442Z,20.98
2022-09-28T17:19:59.387Z,21.35
2022-09-28T17:25:03.572Z,27.50
2022-09-28T17:30:07.735Z,22.98
2022-09-28T17:35:24.275Z,30.58
2022-09-28T17:40:31.470Z,27.38
2022-09-28T17:45:39.461Z,28.98
2022-09-28T17:50:46.669Z,26.70
2022-09-28T17:55:51.530Z,28.77
2022-09-28T18:00:54.456Z,27.13
2022-09-28T18:06:03.333Z,28.85
2022-09-28T18:11:07.691Z,27.13
2022-09-28T18:16:11.003Z,28.20
2022-09-28T18:21:17.898Z,28.85
2022-09-28T18:26:22.244Z,25.98
2022-09-28T18:31:25.494Z,26.58
2022-09-28T18:36:33.234Z,26.30
2022-09-28T18:41:37.743Z,27.73
2022-09-28T18:46:42.947Z,27.13
2022-09-28T18:51:45.937Z,29.50
2022-09-28T18:56:51.257Z,32.47
2022-09-28T19:01:54.367Z,28.80
2022-09-28T19:06:57.218Z,31.30
2022-09-28T19:12:01.953Z,30.20
2022-09-28T19:17:04.899Z,31.35
2022-09-28T19:22:07.646Z,29.58
2022-09-28T19:27:12.169Z,30.45
2022-09-28T19:32:15.354Z,31.00
2022-09-28T19:37:18.173Z,27.30
2022-09-28T19:42:22.553Z,27.92
2022-09-28T19:47:25.618Z,28.75
2022-09-28T19:52:28.515Z,33.33
2022-09-28T19:57:34.211Z,28.45
2022-09-28T20:02:37.142Z,31.08
2022-09-28T20:07:40.053Z,30.55
2022-09-28T20:12:44.437Z,31.35
2022-09-28T20:17:47.542Z,30.27
2022-09-28T20:22:50.454Z,29.02
2022-09-28T20:27:55.139Z,29.80
2022-09-28T20:32:58.102Z,29.80
2022-09-28T20:38:07.882Z,33.20
2022-09-28T20:43:12.348Z,45.90
2022-09-28T20:48:15.292Z,36.65
2022-09-28T20:53:18.121Z,30.38
2022-09-28T20:58:22.264Z,25.98
2022-09-28T21:03:25.356Z,24.98
2022-09-28T21:08:28.189Z,22.27
2022-09-28T21:13:32.332Z,22.95
2022-09-28T21:18:35.149Z,22.75
2022-09-28T21:23:38.100Z,24.38
2022-09-28T21:28:44.620Z,19.33
2022-09-28T21:33:47.573Z,19.45
2022-09-28T21:38:50.423Z,19.45
2022-09-28T21:43:54.798Z,23.27
2022-09-28T21:48:57.573Z,20.98
2022-09-28T21:54:00.379Z,25.77
2022-09-28T21:59:04.595Z,19.70
2022-09-28T22:04:07.353Z,16.55
2022-09-28T22:09:10.166Z,17.67
2022-09-28T22:14:14.607Z,19.25
2022-09-28T22:19:17.640Z,19.58
2022-09-28T22:24:20.604Z,17.40
2022-09-28T22:29:24.918Z,16.83
2022-09-28T22:34:30.638Z,18.35
2022-09-28T22:39:37.472Z,18.00
2022-09-28T22:44:42.442Z,21.23
2022-09-28T22:49:45.173Z,18.77
2022-09-28T22:54:51.136Z,17.88
2022-09-28T22:59:55.258Z,19.67
2022-09-28T23:04:57.973Z,23.15
2022-09-28T23:10:00.699Z,21.52
2022-09-28T23:15:05.728Z,20.60
2022-09-28T23:20:09.569Z,23.02
2022-09-28T23:25:12.280Z,21.15
2022-09-28T23:30:18.180Z,20.05
2022-09-28T23:35:21.163Z,19.42
2022-09-28T23:40:24.034Z,22.08
2022-09-28T23:45:28.202Z,22.88
2022-09-28T23:50:31.190Z,23.52
2022-09-28T23:55:35.042Z,20.00
